createdAt,value
2023-03-22T00:01:41.843Z,94544.38
2023-03-22T00:04:11.613Z,94544.69
2023-03-22T00:06:40.594Z,94545.66
2023-03-22T00:09:10.184Z,94542.06
2023-03-22T00:11:39.958Z,94543.19
2023-03-22T00:14:08.955Z,94550.66
2023-03-22T00:16:39.998Z,94543.81
2023-03-22T00:19:09.132Z,94547.63
2023-03-22T00:21:38.067Z,94547.44
2023-03-22T00:24:08.371Z,94538.81
2023-03-22T00:26:37.962Z,94541.16
2023-03-22T00:29:08.272Z,94545.97
2023-03-22T00:31:37.451Z,94537.72
2023-03-22T00:34:09.065Z,94538.22
2023-03-22T00:36:38.451Z,94542.44
2023-03-22T00:39:08.241Z,94532.47
2023-03-22T00:41:37.334Z,94529.03
2023-03-22T00:44:08.305Z,94528.28
2023-03-22T00:46:38.063Z,94532.81
2023-03-22T00:49:09.185Z,94533.53
2023-03-22T00:51:38.167Z,94529.50
2023-03-22T00:54:07.326Z,94519.13
2023-03-22T00:56:37.991Z,94524.09
2023-03-22T00:59:13.946Z,94524.59
2023-03-22T01:01:45.520Z,94524.78
2023-03-22T01:04:18.367Z,94519.00
2023-03-22T01:06:48.122Z,94528.84
2023-03-22T01:09:17.729Z,94521.69
2023-03-22T01:11:48.035Z,94517.69
2023-03-22T01:14:17.830Z,94509.38
2023-03-22T01:16:47.817Z,94507.78
2023-03-22T01:19:19.993Z,94514.91
2023-03-22T01:21:49.088Z,94506.94
2023-03-22T01:24:18.169Z,94501.78
2023-03-22T01:26:47.278Z,94495.69
2023-03-22T01:29:16.666Z,94501.44
2023-03-22T01:31:46.005Z,94500.81
2023-03-22T01:34:15.805Z,94492.38
2023-03-22T01:36:47.037Z,94492.06
2023-03-22T01:39:16.836Z,94478.28
2023-03-22T01:41:47.471Z,94489.34
2023-03-22T01:44:21.727Z,94487.03
2023-03-22T01:46:53.255Z,94488.06
2023-03-22T01:49:27.576Z,94481.97
2023-03-22T01:52:01.149Z,94482.09
2023-03-22T01:54:54.134Z,94489.28
2023-03-22T01:57:55.703Z,94486.47
2023-03-22T02:00:39.082Z,94489.34
2023-03-22T02:03:26.426Z,94481.59
2023-03-22T02:05:56.260Z,94485.09
2023-03-22T02:08:28.630Z,94489.81
2023-03-22T02:11:05.454Z,94492.63
2023-03-22T02:13:56.341Z,94490.78
2023-03-22T02:17:28.909Z,94501.63
2023-03-22T02:20:46.788Z,94496.44
2023-03-22T02:23:59.465Z,94496.19
2023-03-22T02:27:20.926Z,94499.44
2023-03-22T02:30:00.786Z,94504.91
2023-03-22T02:33:03.680Z,94502.59
2023-03-22T02:35:54.824Z,94499.88
2023-03-22T02:39:05.227Z,94500.00
2023-03-22T02:41:57.312Z,94504.94
2023-03-22T02:44:33.649Z,94509.47
2023-03-22T02:47:06.583Z,94505.31
2023-03-22T02:49:41.121Z,94505.34
2023-03-22T02:52:18.031Z,94503.50
2023-03-22T02:54:54.074Z,94511.97
2023-03-22T02:57:31.690Z,94508.00
2023-03-22T03:00:02.450Z,94509.03
2023-03-22T03:02:34.507Z,94507.47
2023-03-22T03:05:05.621Z,94516.44
2023-03-22T03:07:36.394Z,94514.34
2023-03-22T03:10:08.915Z,94523.88
2023-03-22T03:12:38.022Z,94518.06
2023-03-22T03:15:15.358Z,94523.63
2023-03-22T03:18:00.916Z,94518.34
2023-03-22T03:20:38.442Z,94519.47
2023-03-22T03:23:17.278Z,94523.59
2023-03-22T03:25:58.151Z,94521.19
2023-03-22T03:28:39.175Z,94522.22
2023-03-22T03:31:19.943Z,94518.69
2023-03-22T03:33:58.939Z,94523.03
2023-03-22T03:36:29.669Z,94525.09
2023-03-22T03:39:02.171Z,94521.41
2023-03-22T03:41:33.588Z,94530.22
2023-03-22T03:44:04.517Z,94531.03
2023-03-22T03:46:34.226Z,94537.34
2023-03-22T03:49:06.205Z,94542.72
2023-03-22T03:51:35.414Z,94541.13
2023-03-22T03:54:05.222Z,94543.63
2023-03-22T03:56:35.831Z,94542.22
2023-03-22T03:59:05.159Z,94540.09
2023-03-22T04:01:35.321Z,94539.72
2023-03-22T04:04:14.382Z,94539.47
2023-03-22T04:06:49.473Z,94542.56
2023-03-22T04:09:23.488Z,94540.09
2023-03-22T04:11:59.294Z,94548.03
2023-03-22T04:14:29.159Z,94546.75
2023-03-22T04:17:01.837Z,94547.81
2023-03-22T04:19:32.842Z,94549.72
2023-03-22T04:22:02.315Z,94549.72
2023-03-22T04:24:33.202Z,94538.31
2023-03-22T04:27:03.797Z,94538.59
2023-03-22T04:29:39.818Z,94547.31
2023-03-22T04:32:29.704Z,94543.63
2023-03-22T04:34:59.057Z,94552.28
2023-03-22T04:37:28.513Z,94550.94
2023-03-22T04:40:10.238Z,94547.88
2023-03-22T04:43:04.329Z,94551.31
2023-03-22T04:45:49.115Z,94543.38
2023-03-22T04:48:28.272Z,94542.56
2023-03-22T04:51:05.524Z,94546.25
2023-03-22T04:53:41.916Z,94541.78
2023-03-22T04:56:14.900Z,94539.47
2023-03-22T04:58:48.325Z,94549.03
2023-03-22T05:01:18.810Z,94546.38
2023-03-22T05:03:54.997Z,94545.09
2023-03-22T05:06:25.728Z,94549.81
2023-03-22T05:09:04.990Z,94564.34
2023-03-22T05:11:34.088Z,94550.88
2023-03-22T05:14:19.868Z,94561.28
2023-03-22T05:16:48.963Z,94568.44
2023-03-22T05:19:22.567Z,94564.41
2023-03-22T05:21:58.297Z,94562.06
2023-03-22T05:24:41.511Z,94561.59
2023-03-22T05:27:15.667Z,94570.44
2023-03-22T05:29:47.053Z,94571.94
2023-03-22T05:32:25.891Z,94570.66
2023-03-22T05:34:57.485Z,94573.31
2023-03-22T05:37:36.664Z,94581.00
2023-03-22T05:40:10.231Z,94579.66
2023-03-22T05:42:44.188Z,94585.56
2023-03-22T05:45:26.553Z,94580.34
2023-03-22T05:48:12.077Z,94580.97
2023-03-22T05:50:41.888Z,94588.50
2023-03-22T05:53:12.798Z,94589.84
2023-03-22T05:56:01.161Z,94591.78
2023-03-22T05:58:34.097Z,94601.56
2023-03-22T06:01:09.421Z,94598.69
2023-03-22T06:03:53.547Z,94604.84
2023-03-22T06:06:32.561Z,94609.84
2023-03-22T06:09:17.618Z,94608.47
2023-03-22T06:11:52.000Z,94613.13
2023-03-22T06:14:22.430Z,94612.03
2023-03-22T06:17:29.668Z,94620.22
2023-03-22T06:19:58.887Z,94621.00
2023-03-22T06:22:30.785Z,94620.25
2023-03-22T06:24:59.947Z,94625.03
2023-03-22T06:27:41.472Z,94620.59
2023-03-22T06:30:11.731Z,94618.59
2023-03-22T06:33:05.409Z,94624.19
2023-03-22T06:35:38.861Z,94626.09
2023-03-22T06:38:11.166Z,94634.91
2023-03-22T06:40:41.940Z,94641.81
2023-03-22T06:43:11.304Z,94635.72
2023-03-22T06:45:44.616Z,94636.22
2023-03-22T06:48:15.917Z,94644.22
2023-03-22T06:50:52.860Z,94642.84
2023-03-22T06:53:29.019Z,94639.81
2023-03-22T06:55:58.875Z,94639.53
2023-03-22T06:58:28.787Z,94646.94
2023-03-22T07:00:58.378Z,94644.91
2023-03-22T07:03:30.608Z,94643.06
2023-03-22T07:06:10.091Z,94650.28
2023-03-22T07:08:43.165Z,94648.75
2023-03-22T07:11:15.341Z,94657.13
2023-03-22T07:13:47.777Z,94657.44
2023-03-22T07:16:23.306Z,94656.94
2023-03-22T07:18:57.422Z,94652.19
2023-03-22T07:21:26.534Z,94657.25
2023-03-22T07:24:02.134Z,94657.63
2023-03-22T07:26:34.241Z,94668.22
2023-03-22T07:29:05.072Z,94671.56
2023-03-22T07:31:37.956Z,94676.56
2023-03-22T07:34:12.252Z,94669.66
2023-03-22T07:37:03.181Z,94673.66
2023-03-22T07:39:33.234Z,94678.47
2023-03-22T07:42:02.322Z,94680.16
2023-03-22T07:44:54.424Z,94684.44
2023-03-22T07:47:39.964Z,94680.06
2023-03-22T07:50:30.048Z,94679.63
2023-03-22T07:53:04.034Z,94681.84
2023-03-22T07:55:33.751Z,94693.25
2023-03-22T07:58:02.834Z,94687.22
2023-03-22T08:00:32.143Z,94692.59
2023-03-22T08:03:22.451Z,94699.38
2023-03-22T08:06:07.350Z,94701.47
2023-03-22T08:08:38.278Z,94703.56
2023-03-22T08:11:08.672Z,94692.72
2023-03-22T08:13:38.538Z,94703.06
2023-03-22T08:16:10.841Z,94693.00
2023-03-22T08:18:41.858Z,94691.72
2023-03-22T08:21:13.154Z,94698.09
2023-03-22T08:23:43.596Z,94698.88
2023-03-22T08:26:51.176Z,94702.66
2023-03-22T08:29:34.622Z,94707.72
2023-03-22T08:32:06.009Z,94702.44
2023-03-22T08:34:39.069Z,94700.34
2023-03-22T08:37:10.134Z,94695.72
2023-03-22T08:39:41.050Z,94704.94
2023-03-22T08:42:30.855Z,94701.81
2023-03-22T08:45:00.030Z,94710.91
2023-03-22T08:47:32.352Z,94712.78
2023-03-22T08:50:05.061Z,94714.94
2023-03-22T08:52:58.330Z,94709.06
2023-03-22T08:55:30.326Z,94713.16
2023-03-22T08:58:16.620Z,94716.91
2023-03-22T09:01:04.293Z,94712.94
2023-03-22T09:03:41.663Z,94710.28
2023-03-22T09:06:12.359Z,94712.72
2023-03-22T09:08:44.575Z,94714.50
2023-03-22T09:11:18.046Z,94714.53
2023-03-22T09:13:50.422Z,94719.91
2023-03-22T09:16:20.639Z,94721.13
2023-03-22T09:18:50.721Z,94713.25
2023-03-22T09:21:23.257Z,94710.03
2023-03-22T09:24:11.726Z,94707.56
2023-03-22T09:26:45.673Z,94703.25
2023-03-22T09:29:17.465Z,94705.84
2023-03-22T09:31:49.112Z,94703.56
2023-03-22T09:34:28.626Z,94707.69
2023-03-22T09:36:58.800Z,94708.88
2023-03-22T09:39:34.902Z,94711.16
2023-03-22T09:42:09.330Z,94708.66
2023-03-22T09:44:42.325Z,94714.84
2023-03-22T09:47:19.516Z,94708.88
2023-03-22T09:49:53.959Z,94720.44
2023-03-22T09:52:23.746Z,94709.53
2023-03-22T09:54:55.000Z,94715.91
2023-03-22T09:57:33.136Z,94719.00
2023-03-22T10:00:15.417Z,94717.44
2023-03-22T10:03:00.126Z,94716.16
2023-03-22T10:05:37.142Z,94724.66
2023-03-22T10:08:29.150Z,94727.75
2023-03-22T10:11:01.548Z,94726.25
2023-03-22T10:13:37.033Z,94724.53
2023-03-22T10:16:12.104Z,94726.75
2023-03-22T10:18:47.355Z,94720.84
2023-03-22T10:21:18.904Z,94722.97
2023-03-22T10:23:53.322Z,94728.09
2023-03-22T10:26:29.702Z,94722.72
2023-03-22T10:29:04.228Z,94718.09
2023-03-22T10:31:35.419Z,94725.09
2023-03-22T10:34:09.132Z,94723.19
2023-03-22T10:36:40.380Z,94720.41
2023-03-22T10:39:17.044Z,94727.47
2023-03-22T10:41:51.221Z,94729.56
2023-03-22T10:44:22.753Z,94730.13
2023-03-22T10:46:54.023Z,94728.53
2023-03-22T10:49:28.834Z,94728.41
2023-03-22T10:52:03.586Z,94728.25
2023-03-22T10:54:33.541Z,94728.41
2023-03-22T10:57:04.158Z,94740.66
2023-03-22T10:59:45.581Z,94737.44
2023-03-22T11:02:23.928Z,94731.63
2023-03-22T11:04:55.664Z,94730.28
2023-03-22T11:07:34.733Z,94716.94
2023-03-22T11:10:22.002Z,94723.81
2023-03-22T11:12:55.479Z,94724.09
2023-03-22T11:15:31.281Z,94718.41
2023-03-22T11:18:03.164Z,94716.03
2023-03-22T11:20:34.017Z,94725.41
2023-03-22T11:23:07.262Z,94720.06
2023-03-22T11:25:39.580Z,94728.84
2023-03-22T11:28:18.045Z,94720.19
2023-03-22T11:31:01.799Z,94725.94
2023-03-22T11:33:30.955Z,94721.78
2023-03-22T11:36:02.517Z,94714.41
2023-03-22T11:38:38.397Z,94716.91
2023-03-22T11:41:12.166Z,94713.09
2023-03-22T11:43:48.633Z,94711.19
2023-03-22T11:46:20.596Z,94721.28
2023-03-22T11:48:52.385Z,94720.22
2023-03-22T11:51:33.655Z,94714.56
2023-03-22T11:54:09.608Z,94707.16
2023-03-22T11:56:43.253Z,94713.59
2023-03-22T11:59:17.985Z,94706.09
2023-03-22T12:01:52.713Z,94713.25
2023-03-22T12:04:28.625Z,94712.31
2023-03-22T12:07:00.147Z,94708.09
2023-03-22T12:09:39.679Z,94705.06
2023-03-22T12:12:15.085Z,94697.75
2023-03-22T12:14:53.326Z,94710.03
2023-03-22T12:17:31.514Z,94707.16
2023-03-22T12:20:08.847Z,94705.56
2023-03-22T12:22:43.505Z,94704.03
2023-03-22T12:25:17.554Z,94701.38
2023-03-22T12:27:50.115Z,94694.13
2023-03-22T12:30:24.436Z,94703.13
2023-03-22T12:33:00.922Z,94702.69
2023-03-22T12:35:33.682Z,94696.81
2023-03-22T12:38:11.308Z,94700.03
2023-03-22T12:40:42.512Z,94692.59
2023-03-22T12:43:18.705Z,94693.38
2023-03-22T12:45:56.487Z,94694.47
2023-03-22T12:48:34.017Z,94693.38
2023-03-22T12:51:06.944Z,94700.59
2023-03-22T12:53:42.679Z,94702.34
2023-03-22T12:56:14.637Z,94699.47
2023-03-22T12:58:47.919Z,94698.66
2023-03-22T13:01:28.943Z,94691.53
2023-03-22T13:03:59.692Z,94703.25
2023-03-22T13:06:35.226Z,94690.28
2023-03-22T13:09:17.155Z,94699.44
2023-03-22T13:11:49.017Z,94699.78
2023-03-22T13:14:56.706Z,94700.97
2023-03-22T13:17:43.073Z,94683.00
2023-03-22T13:20:34.566Z,94676.63
2023-03-22T13:23:11.499Z,94678.88
2023-03-22T13:26:00.374Z,94674.72
2023-03-22T13:28:31.243Z,94677.91
2023-03-22T13:31:01.746Z,94668.81
2023-03-22T13:33:35.436Z,94669.13
2023-03-22T13:36:09.255Z,94673.63
2023-03-22T13:38:42.765Z,94669.66
2023-03-22T13:41:23.201Z,94665.72
2023-03-22T13:43:55.779Z,94674.72
2023-03-22T13:46:48.128Z,94677.16
2023-03-22T13:49:58.237Z,94676.28
2023-03-22T13:52:41.253Z,94671.22
2023-03-22T13:55:41.438Z,94674.59
2023-03-22T13:58:33.255Z,94668.47
2023-03-22T14:01:02.677Z,94667.91
2023-03-22T14:03:36.019Z,94664.25
2023-03-22T14:06:13.188Z,94666.63
2023-03-22T14:08:47.429Z,94667.41
2023-03-22T14:11:24.293Z,94670.06
2023-03-22T14:13:58.562Z,94662.06
2023-03-22T14:16:38.329Z,94675.34
2023-03-22T14:19:09.499Z,94662.09
2023-03-22T14:21:41.543Z,94660.50
